sensor_id;sensor_type;location;lat;lon;timestamp;P1;durP1;ratioP1;P2;durP2;ratioP2
22164;SDS011;11248;52.512;13.520;2023-07-30T00:00:56;5.38;;;3.78;;
22164;SDS011;11248;52.512;13.520;2023-07-30T00:03:22;6.32;;;4.65;;
22164;SDS011;11248;52.512;13.520;2023-07-30T00:05:54;5.13;;;3.55;;
22164;SDS011;11248;52.512;13.520;2023-07-30T00:08:20;5.30;;;3.45;;
22164;SDS011;11248;52.512;13.520;2023-07-30T00:10:46;5.13;;;3.85;;
22164;SDS011;11248;52.512;13.520;2023-07-30T00:13:12;3.72;;;3.33;;
22164;SDS011;11248;52.512;13.520;2023-07-30T00:15:38;4.30;;;3.75;;
22164;SDS011;11248;52.512;13.520;2023-07-30T00:18:03;3.90;;;3.10;;
22164;SDS011;11248;52.512;13.520;2023-07-30T00:20:29;6.47;;;3.47;;
22164;SDS011;11248;52.512;13.520;2023-07-30T00:22:55;4.13;;;3.50;;
22164;SDS011;11248;52.512;13.520;2023-07-30T00:25:21;4.72;;;3.72;;
22164;SDS011;11248;52.512;13.520;2023-07-30T00:27:47;3.70;;;3.35;;
22164;SDS011;11248;52.512;13.520;2023-07-30T00:30:13;4.68;;;3.90;;
22164;SDS011;11248;52.512;13.520;2023-07-30T00:32:40;5.88;;;4.05;;
22164;SDS011;11248;52.512;13.520;2023-07-30T00:35:08;4.38;;;3.33;;
22164;SDS011;11248;52.512;13.520;2023-07-30T00:37:34;5.55;;;3.92;;
22164;SDS011;11248;52.512;13.520;2023-07-30T00:40:00;6.38;;;3.78;;
22164;SDS011;11248;52.512;13.520;2023-07-30T00:42:26;4.55;;;3.75;;
22164;SDS011;11248;52.512;13.520;2023-07-30T00:44:51;3.95;;;3.53;;
22164;SDS011;11248;52.512;13.520;2023-07-30T00:47:17;5.00;;;3.50;;
22164;SDS011;11248;52.512;13.520;2023-07-30T00:49:43;4.13;;;3.70;;
22164;SDS011;11248;52.512;13.520;2023-07-30T00:52:09;4.00;;;3.60;;
22164;SDS011;11248;52.512;13.520;2023-07-30T00:54:36;5.72;;;3.35;;
22164;SDS011;11248;52.512;13.520;2023-07-30T00:57:02;3.88;;;3.35;;
22164;SDS011;11248;52.512;13.520;2023-07-30T00:59:28;4.03;;;3.63;;
22164;SDS011;11248;52.512;13.520;2023-07-30T01:01:54;3.65;;;3.20;;
22164;SDS011;11248;52.512;13.520;2023-07-30T01:04:23;4.05;;;3.60;;
22164;SDS011;11248;52.512;13.520;2023-07-30T01:06:49;4.53;;;3.72;;
22164;SDS011;11248;52.512;13.520;2023-07-30T01:09:15;5.18;;;3.55;;
22164;SDS011;11248;52.512;13.520;2023-07-30T01:11:41;6.13;;;3.90;;
22164;SDS011;11248;52.512;13.520;2023-07-30T01:14:08;4.80;;;3.55;;
22164;SDS011;11248;52.512;13.520;2023-07-30T01:16:35;5.35;;;3.90;;
22164;SDS011;11248;52.512;13.520;2023-07-30T01:19:01;3.88;;;3.40;;
22164;SDS011;11248;52.512;13.520;2023-07-30T01:21:31;4.15;;;3.47;;
22164;SDS011;11248;52.512;13.520;2023-07-30T01:23:57;4.07;;;3.50;;
22164;SDS011;11248;52.512;13.520;2023-07-30T01:26:24;3.88;;;3.20;;
22164;SDS011;11248;52.512;13.520;2023-07-30T01:28:51;3.40;;;3.03;;
22164;SDS011;11248;52.512;13.520;2023-07-30T01:31:19;3.53;;;3.22;;
22164;SDS011;11248;52.512;13.520;2023-07-30T01:33:46;3.58;;;3.08;;
22164;SDS011;11248;52.512;13.520;2023-07-30T01:36:15;4.20;;;3.30;;
22164;SDS011;11248;52.512;13.520;2023-07-30T01:38:42;3.92;;;2.92;;
22164;SDS011;11248;52.512;13.520;2023-07-30T01:41:08;3.53;;;3.10;;
22164;SDS011;11248;52.512;13.520;2023-07-30T01:43:35;3.75;;;3.08;;
22164;SDS011;11248;52.512;13.520;2023-07-30T01:46:01;3.40;;;3.00;;
22164;SDS011;11248;52.512;13.520;2023-07-30T01:48:27;4.70;;;3.65;;
22164;SDS011;11248;52.512;13.520;2023-07-30T01:50:53;4.18;;;3.20;;
22164;SDS011;11248;52.512;13.520;2023-07-30T01:53:19;3.83;;;3.47;;
22164;SDS011;11248;52.512;13.520;2023-07-30T01:55:44;3.70;;;3.15;;
22164;SDS011;11248;52.512;13.520;2023-07-30T01:58:11;4.57;;;3.50;;
22164;SDS011;11248;52.512;13.520;2023-07-30T02:00:38;4.68;;;3.78;;
22164;SDS011;11248;52.512;13.520;2023-07-30T02:03:04;5.15;;;3.15;;
22164;SDS011;11248;52.512;13.520;2023-07-30T02:05:30;4.18;;;3.58;;
22164;SDS011;11248;52.512;13.520;2023-07-30T02:07:56;3.72;;;3.30;;
22164;SDS011;11248;52.512;13.520;2023-07-30T02:10:22;4.78;;;3.75;;
22164;SDS011;11248;52.512;13.520;2023-07-30T02:12:49;7.10;;;3.72;;
22164;SDS011;11248;52.512;13.520;2023-07-30T02:15:15;4.10;;;3.70;;
22164;SDS011;11248;52.512;13.520;2023-07-30T02:17:41;4.18;;;3.42;;
22164;SDS011;11248;52.512;13.520;2023-07-30T02:20:07;3.90;;;3.47;;
22164;SDS011;11248;52.512;13.520;2023-07-30T02:22:33;4.38;;;3.30;;
22164;SDS011;11248;52.512;13.520;2023-07-30T02:24:59;4.05;;;3.20;;
22164;SDS011;11248;52.512;13.520;2023-07-30T02:27:25;6.75;;;3.35;;
22164;SDS011;11248;52.512;13.520;2023-07-30T02:29:51;4.00;;;3.40;;
22164;SDS011;11248;52.512;13.520;2023-07-30T02:32:17;3.75;;;3.25;;
22164;SDS011;11248;52.512;13.520;2023-07-30T02:34:43;3.35;;;3.00;;
22164;SDS011;11248;52.512;13.520;2023-07-30T02:37:09;4.38;;;3.55;;
22164;SDS011;11248;52.512;13.520;2023-07-30T02:39:35;4.70;;;3.85;;
22164;SDS011;11248;52.512;13.520;2023-07-30T02:42:01;5.30;;;3.72;;
22164;SDS011;11248;52.512;13.520;2023-07-30T02:44:27;6.10;;;4.00;;
22164;SDS011;11248;52.512;13.520;2023-07-30T02:46:52;3.78;;;3.38;;
22164;SDS011;11248;52.512;13.520;2023-07-30T02:49:18;3.97;;;3.40;;
22164;SDS011;11248;52.512;13.520;2023-07-30T02:51:44;3.55;;;3.22;;
22164;SDS011;11248;52.512;13.520;2023-07-30T02:54:13;5.28;;;3.90;;
22164;SDS011;11248;52.512;13.520;2023-07-30T02:56:41;6.57;;;3.70;;
22164;SDS011;11248;52.512;13.520;2023-07-30T02:59:07;8.05;;;3.53;;
22164;SDS011;11248;52.512;13.520;2023-07-30T03:01:33;4.22;;;3.63;;
22164;SDS011;11248;52.512;13.520;2023-07-30T03:03:59;3.90;;;3.10;;
22164;SDS011;11248;52.512;13.520;2023-07-30T03:06:25;4.25;;;3.30;;
22164;SDS011;11248;52.512;13.520;2023-07-30T03:08:51;5.18;;;3.40;;
22164;SDS011;11248;52.512;13.520;2023-07-30T03:11:17;5.45;;;3.65;;
22164;SDS011;11248;52.512;13.520;2023-07-30T03:13:42;4.53;;;3.47;;
22164;SDS011;11248;52.512;13.520;2023-07-30T03:16:08;3.78;;;3.35;;
22164;SDS011;11248;52.512;13.520;2023-07-30T03:18:34;4.68;;;3.28;;
22164;SDS011;11248;52.512;13.520;2023-07-30T03:21:00;3.97;;;3.05;;
22164;SDS011;11248;52.512;13.520;2023-07-30T03:23:27;5.82;;;3.50;;
22164;SDS011;11248;52.512;13.520;2023-07-30T03:25:53;5.20;;;3.20;;
22164;SDS011;11248;52.512;13.520;2023-07-30T03:28:19;4.95;;;3.47;;
22164;SDS011;11248;52.512;13.520;2023-07-30T03:30:45;5.15;;;3.50;;
22164;SDS011;11248;52.512;13.520;2023-07-30T03:33:11;4.55;;;3.90;;
22164;SDS011;11248;52.512;13.520;2023-07-30T03:35:36;5.75;;;3.70;;
22164;SDS011;11248;52.512;13.520;2023-07-30T03:38:02;4.47;;;3.58;;
22164;SDS011;11248;52.512;13.520;2023-07-30T03:40:28;4.20;;;3.58;;
22164;SDS011;11248;52.512;13.520;2023-07-30T03:42:54;3.83;;;3.35;;
22164;SDS011;11248;52.512;13.520;2023-07-30T03:45:20;5.18;;;3.90;;
22164;SDS011;11248;52.512;13.520;2023-07-30T03:47:46;3.80;;;3.47;;
22164;SDS011;11248;52.512;13.520;2023-07-30T03:50:12;4.32;;;3.60;;
22164;SDS011;11248;52.512;13.520;2023-07-30T03:52:38;4.18;;;3.60;;
22164;SDS011;11248;52.512;13.520;2023-07-30T03:55:04;4.45;;;3.33;;
22164;SDS011;11248;52.512;13.520;2023-07-30T03:57:30;5.78;;;3.53;;
22164;SDS011;11248;52.512;13.520;2023-07-30T03:59:56;5.00;;;4.00;;
22164;SDS011;11248;52.512;13.520;2023-07-30T04:02:22;6.18;;;3.97;;
22164;SDS011;11248;52.512;13.520;2023-07-30T04:04:48;3.97;;;3.58;;
22164;SDS011;11248;52.512;13.520;2023-07-30T04:07:15;4.10;;;3.50;;
22164;SDS011;11248;52.512;13.520;2023-07-30T04:09:40;5.45;;;3.95;;
22164;SDS011;11248;52.512;13.520;2023-07-30T04:12:06;4.70;;;3.97;;
22164;SDS011;11248;52.512;13.520;2023-07-30T04:14:32;5.57;;;3.78;;
22164;SDS011;11248;52.512;13.520;2023-07-30T04:16:58;5.63;;;3.63;;
22164;SDS011;11248;52.512;13.520;2023-07-30T04:19:24;3.78;;;3.30;;
22164;SDS011;11248;52.512;13.520;2023-07-30T04:21:50;4.38;;;3.55;;
22164;SDS011;11248;52.512;13.520;2023-07-30T04:24:16;4.47;;;3.83;;
22164;SDS011;11248;52.512;13.520;2023-07-30T04:26:42;4.63;;;3.97;;
22164;SDS011;11248;52.512;13.520;2023-07-30T04:29:08;5.82;;;4.30;;
22164;SDS011;11248;52.512;13.520;2023-07-30T04:31:35;4.25;;;3.45;;
22164;SDS011;11248;52.512;13.520;2023-07-30T04:34:01;4.70;;;3.90;;
22164;SDS011;11248;52.512;13.520;2023-07-30T04:36:27;4.90;;;4.28;;
22164;SDS011;11248;52.512;13.520;2023-07-30T04:38:53;4.82;;;3.92;;
22164;SDS011;11248;52.512;13.520;2023-07-30T04:41:19;5.45;;;4.03;;
22164;SDS011;11248;52.512;13.520;2023-07-30T04:43:45;5.68;;;4.03;;
22164;SDS011;11248;52.512;13.520;2023-07-30T04:46:11;4.32;;;3.83;;
22164;SDS011;11248;52.512;13.520;2023-07-30T04:48:37;4.10;;;3.65;;
22164;SDS011;11248;52.512;13.520;2023-07-30T04:51:03;4.45;;;3.63;;
22164;SDS011;11248;52.512;13.520;2023-07-30T04:53:29;4.68;;;4.05;;
22164;SDS011;11248;52.512;13.520;2023-07-30T04:55:55;3.70;;;3.30;;
22164;SDS011;11248;52.512;13.520;2023-07-30T04:58:24;5.40;;;3.90;;
22164;SDS011;11248;52.512;13.520;2023-07-30T05:00:50;5.25;;;4.05;;
22164;SDS011;11248;52.512;13.520;2023-07-30T05:03:16;3.90;;;3.50;;
22164;SDS011;11248;52.512;13.520;2023-07-30T05:05:42;4.78;;;3.75;;
22164;SDS011;11248;52.512;13.520;2023-07-30T05:08:08;4.20;;;3.80;;
22164;SDS011;11248;52.512;13.520;2023-07-30T05:10:34;6.07;;;4.13;;
22164;SDS011;11248;52.512;13.520;2023-07-30T05:13:00;4.25;;;3.58;;
22164;SDS011;11248;52.512;13.520;2023-07-30T05:15:26;3.97;;;3.25;;
22164;SDS011;11248;52.512;13.520;2023-07-30T05:17:52;4.43;;;3.83;;
22164;SDS011;11248;52.512;13.520;2023-07-30T05:20:18;4.30;;;3.90;;
22164;SDS011;11248;52.512;13.520;2023-07-30T05:22:43;3.97;;;3.58;;
22164;SDS011;11248;52.512;13.520;2023-07-30T05:25:09;4.60;;;4.15;;
22164;SDS011;11248;52.512;13.520;2023-07-30T05:27:35;5.28;;;3.90;;
22164;SDS011;11248;52.512;13.520;2023-07-30T05:30:01;9.77;;;4.25;;
22164;SDS011;11248;52.512;13.520;2023-07-30T05:32:27;4.78;;;3.58;;
22164;SDS011;11248;52.512;13.520;2023-07-30T05:34:53;3.85;;;3.38;;
22164;SDS011;11248;52.512;13.520;2023-07-30T05:37:19;3.90;;;3.50;;
22164;SDS011;11248;52.512;13.520;2023-07-30T05:39:45;3.55;;;3.17;;
22164;SDS011;11248;52.512;13.520;2023-07-30T05:42:11;3.22;;;2.92;;
22164;SDS011;11248;52.512;13.520;2023-07-30T05:44:37;3.20;;;2.90;;
22164;SDS011;11248;52.512;13.520;2023-07-30T05:47:03;3.30;;;3.00;;
22164;SDS011;11248;52.512;13.520;2023-07-30T05:49:28;3.22;;;2.92;;
22164;SDS011;11248;52.512;13.520;2023-07-30T05:51:54;4.85;;;3.40;;
22164;SDS011;11248;52.512;13.520;2023-07-30T05:54:20;3.30;;;2.55;;
22164;SDS011;11248;52.512;13.520;2023-07-30T05:56:46;3.40;;;3.10;;
22164;SDS011;11248;52.512;13.520;2023-07-30T05:59:12;3.63;;;2.75;;
22164;SDS011;11248;52.512;13.520;2023-07-30T06:01:39;2.95;;;2.65;;
22164;SDS011;11248;52.512;13.520;2023-07-30T06:04:05;5.47;;;2.92;;
22164;SDS011;11248;52.512;13.520;2023-07-30T06:06:31;3.13;;;2.22;;
22164;SDS011;11248;52.512;13.520;2023-07-30T06:08:57;2.60;;;2.33;;
22164;SDS011;11248;52.512;13.520;2023-07-30T06:11:23;2.65;;;2.40;;
22164;SDS011;11248;52.512;13.520;2023-07-30T06:13:48;2.60;;;2.25;;
22164;SDS011;11248;52.512;13.520;2023-07-30T06:16:14;2.58;;;2.35;;
22164;SDS011;11248;52.512;13.520;2023-07-30T06:18:40;3.65;;;2.60;;
22164;SDS011;11248;52.512;13.520;2023-07-30T06:21:06;2.63;;;2.25;;
22164;SDS011;11248;52.512;13.520;2023-07-30T06:23:32;2.40;;;2.15;;
22164;SDS011;11248;52.512;13.520;2023-07-30T06:25:58;2.33;;;2.13;;
22164;SDS011;11248;52.512;13.520;2023-07-30T06:28:24;2.40;;;1.90;;
22164;SDS011;11248;52.512;13.520;2023-07-30T06:30:50;2.28;;;2.08;;
22164;SDS011;11248;52.512;13.520;2023-07-30T06:33:16;2.00;;;1.80;;
22164;SDS011;11248;52.512;13.520;2023-07-30T06:35:41;2.28;;;2.03;;
22164;SDS011;11248;52.512;13.520;2023-07-30T06:38:08;2.15;;;1.92;;
22164;SDS011;11248;52.512;13.520;2023-07-30T06:40:34;2.10;;;1.90;;
22164;SDS011;11248;52.512;13.520;2023-07-30T06:43:00;2.47;;;2.20;;
22164;SDS011;11248;52.512;13.520;2023-07-30T06:45:26;2.88;;;2.08;;
22164;SDS011;11248;52.512;13.520;2023-07-30T06:47:52;2.35;;;2.15;;
22164;SDS011;11248;52.512;13.520;2023-07-30T06:50:17;2.10;;;1.75;;
22164;SDS011;11248;52.512;13.520;2023-07-30T06:52:44;2.38;;;1.63;;
22164;SDS011;11248;52.512;13.520;2023-07-30T06:55:10;2.00;;;1.80;;
22164;SDS011;11248;52.512;13.520;2023-07-30T06:57:35;1.50;;;1.40;;
22164;SDS011;11248;52.512;13.520;2023-07-30T07:00:01;3.47;;;1.75;;
22164;SDS011;11248;52.512;13.520;2023-07-30T07:02:28;3.33;;;1.75;;
22164;SDS011;11248;52.512;13.520;2023-07-30T07:04:54;2.63;;;1.65;;
22164;SDS011;11248;52.512;13.520;2023-07-30T07:07:20;2.20;;;1.50;;
22164;SDS011;11248;52.512;13.520;2023-07-30T07:09:46;2.35;;;1.85;;
22164;SDS011;11248;52.512;13.520;2023-07-30T07:12:12;2.35;;;1.65;;
22164;SDS011;11248;52.512;13.520;2023-07-30T07:14:38;1.80;;;1.65;;
22164;SDS011;11248;52.512;13.520;2023-07-30T07:17:04;1.83;;;1.60;;
22164;SDS011;11248;52.512;13.520;2023-07-30T07:19:30;3.30;;;1.95;;
22164;SDS011;11248;52.512;13.520;2023-07-30T07:21:56;1.55;;;1.45;;
22164;SDS011;11248;52.512;13.520;2023-07-30T07:24:22;1.92;;;1.70;;
22164;SDS011;11248;52.512;13.520;2023-07-30T07:26:48;2.22;;;1.98;;
22164;SDS011;11248;52.512;13.520;2023-07-30T07:29:14;1.95;;;1.73;;
22164;SDS011;11248;52.512;13.520;2023-07-30T07:31:40;1.83;;;1.58;;
22164;SDS011;11248;52.512;13.520;2023-07-30T07:34:05;2.85;;;2.15;;
22164;SDS011;11248;52.512;13.520;2023-07-30T07:36:31;3.08;;;2.03;;
22164;SDS011;11248;52.512;13.520;2023-07-30T07:38:57;3.00;;;1.80;;
22164;SDS011;11248;52.512;13.520;2023-07-30T07:41:23;2.55;;;2.35;;
22164;SDS011;11248;52.512;13.520;2023-07-30T07:43:50;2.55;;;1.92;;
22164;SDS011;11248;52.512;13.520;2023-07-30T07:46:17;2.63;;;2.03;;
22164;SDS011;11248;52.512;13.520;2023-07-30T07:48:43;3.70;;;2.40;;
22164;SDS011;11248;52.512;13.520;2023-07-30T07:51:09;3.17;;;2.13;;
22164;SDS011;11248;52.512;13.520;2023-07-30T07:53:36;2.42;;;2.10;;
22164;SDS011;11248;52.512;13.520;2023-07-30T07:56:02;2.33;;;1.80;;
22164;SDS011;11248;52.512;13.520;2023-07-30T07:58:28;3.42;;;2.22;;
22164;SDS011;11248;52.512;13.520;2023-07-30T08:00:54;3.05;;;1.95;;
22164;SDS011;11248;52.512;13.520;2023-07-30T08:03:21;3.05;;;1.98;;
22164;SDS011;11248;52.512;13.520;2023-07-30T08:05:47;2.50;;;2.22;;
22164;SDS011;11248;52.512;13.520;2023-07-30T08:08:13;2.50;;;2.30;;
22164;SDS011;11248;52.512;13.520;2023-07-30T08:10:39;2.88;;;2.10;;
22164;SDS011;11248;52.512;13.520;2023-07-30T08:13:08;3.75;;;2.25;;
22164;SDS011;11248;52.512;13.520;2023-07-30T08:15:34;2.35;;;2.15;;
22164;SDS011;11248;52.512;13.520;2023-07-30T08:18:00;4.45;;;1.90;;
22164;SDS011;11248;52.512;13.520;2023-07-30T08:20:27;3.17;;;2.10;;
22164;SDS011;11248;52.512;13.520;2023-07-30T08:22:53;2.53;;;2.33;;
22164;SDS011;11248;52.512;13.520;2023-07-30T08:25:20;2.67;;;1.92;;
22164;SDS011;11248;52.512;13.520;2023-07-30T08:27:46;2.88;;;2.10;;
22164;SDS011;11248;52.512;13.520;2023-07-30T08:30:12;2.88;;;2.45;;
22164;SDS011;11248;52.512;13.520;2023-07-30T08:32:38;4.15;;;2.13;;
22164;SDS011;11248;52.512;13.520;2023-07-30T08:35:04;2.47;;;2.00;;
22164;SDS011;11248;52.512;13.520;2023-07-30T08:37:30;2.20;;;2.00;;
22164;SDS011;11248;52.512;13.520;2023-07-30T08:39:56;3.35;;;2.20;;
22164;SDS011;11248;52.512;13.520;2023-07-30T08:42:22;1.75;;;1.60;;
22164;SDS011;11248;52.512;13.520;2023-07-30T08:44:48;1.92;;;1.73;;
22164;SDS011;11248;52.512;13.520;2023-07-30T08:47:14;1.85;;;1.65;;
22164;SDS011;11248;52.512;13.520;2023-07-30T08:49:40;2.13;;;1.63;;
22164;SDS011;11248;52.512;13.520;2023-07-30T08:52:08;4.35;;;2.28;;
22164;SDS011;11248;52.512;13.520;2023-07-30T08:54:34;2.05;;;1.52;;
22164;SDS011;11248;52.512;13.520;2023-07-30T08:57:01;2.17;;;1.77;;
22164;SDS011;11248;52.512;13.520;2023-07-30T08:59:30;2.00;;;1.80;;
22164;SDS011;11248;52.512;13.520;2023-07-30T09:01:57;2.38;;;2.00;;
22164;SDS011;11248;52.512;13.520;2023-07-30T09:04:23;2.35;;;1.77;;
22164;SDS011;11248;52.512;13.520;2023-07-30T09:06:49;2.00;;;1.80;;
22164;SDS011;11248;52.512;13.520;2023-07-30T09:09:15;3.72;;;1.77;;
22164;SDS011;11248;52.512;13.520;2023-07-30T09:11:41;2.65;;;1.90;;
22164;SDS011;11248;52.512;13.520;2023-07-30T09:14:07;3.40;;;2.05;;
22164;SDS011;11248;52.512;13.520;2023-07-30T09:16:34;1.60;;;1.50;;
22164;SDS011;11248;52.512;13.520;2023-07-30T09:19:00;2.10;;;1.83;;
22164;SDS011;11248;52.512;13.520;2023-07-30T09:21:30;1.52;;;1.42;;
22164;SDS011;11248;52.512;13.520;2023-07-30T09:23:56;2.35;;;1.80;;
22164;SDS011;11248;52.512;13.520;2023-07-30T09:26:23;2.05;;;1.85;;
22164;SDS011;11248;52.512;13.520;2023-07-30T09:28:49;4.57;;;2.00;;
22164;SDS011;11248;52.512;13.520;2023-07-30T09:31:15;2.13;;;1.50;;
22164;SDS011;11248;52.512;13.520;2023-07-30T09:33:41;2.92;;;1.55;;
22164;SDS011;11248;52.512;13.520;2023-07-30T09:36:07;2.72;;;1.63;;
22164;SDS011;11248;52.512;13.520;2023-07-30T09:38:41;4.30;;;1.73;;
22164;SDS011;11248;52.512;13.520;2023-07-30T09:41:07;3.45;;;1.67;;
22164;SDS011;11248;52.512;13.520;2023-07-30T09:43:34;3.53;;;1.60;;
22164;SDS011;11248;52.512;13.520;2023-07-30T09:46:02;3.53;;;1.80;;
22164;SDS011;11248;52.512;13.520;2023-07-30T09:48:29;5.00;;;1.95;;
22164;SDS011;11248;52.512;13.520;2023-07-30T09:50:56;2.28;;;1.80;;
22164;SDS011;11248;52.512;13.520;2023-07-30T09:53:23;2.83;;;1.58;;
22164;SDS011;11248;52.512;13.520;2023-07-30T09:55:49;2.78;;;1.52;;
22164;SDS011;11248;52.512;13.520;2023-07-30T09:58:15;2.33;;;1.63;;
22164;SDS011;11248;52.512;13.520;2023-07-30T10:00:41;2.40;;;1.65;;
22164;SDS011;11248;52.512;13.520;2023-07-30T10:03:08;3.08;;;1.70;;
22164;SDS011;11248;52.512;13.520;2023-07-30T10:05:35;4.07;;;1.65;;
22164;SDS011;11248;52.512;13.520;2023-07-30T10:08:08;3.45;;;1.80;;
22164;SDS011;11248;52.512;13.520;2023-07-30T10:10:35;2.15;;;1.58;;
22164;SDS011;11248;52.512;13.520;2023-07-30T10:13:03;3.58;;;1.92;;
22164;SDS011;11248;52.512;13.520;2023-07-30T10:15:33;2.55;;;1.50;;
22164;SDS011;11248;52.512;13.520;2023-07-30T10:17:59;3.28;;;1.88;;
22164;SDS011;11248;52.512;13.520;2023-07-30T10:20:26;1.88;;;1.60;;
22164;SDS011;11248;52.512;13.520;2023-07-30T10:22:54;2.58;;;1.77;;
22164;SDS011;11248;52.512;13.520;2023-07-30T10:25:20;2.58;;;1.63;;
22164;SDS011;11248;52.512;13.520;2023-07-30T10:27:48;2.85;;;1.65;;
22164;SDS011;11248;52.512;13.520;2023-07-30T10:30:15;3.75;;;2.00;;
22164;SDS011;11248;52.512;13.520;2023-07-30T10:35:36;2.75;;;1.60;;
22164;SDS011;11248;52.512;13.520;2023-07-30T10:43:28;2.22;;;1.50;;
22164;SDS011;11248;52.512;13.520;2023-07-30T10:45:54;2.58;;;1.50;;
22164;SDS011;11248;52.512;13.520;2023-07-30T10:48:29;5.53;;;1.60;;
22164;SDS011;11248;52.512;13.520;2023-07-30T10:50:55;3.33;;;1.73;;
22164;SDS011;11248;52.512;13.520;2023-07-30T10:53:21;2.08;;;1.70;;
22164;SDS011;11248;52.512;13.520;2023-07-30T10:55:47;3.40;;;1.90;;
22164;SDS011;11248;52.512;13.520;2023-07-30T10:58:13;5.15;;;1.83;;
22164;SDS011;11248;52.512;13.520;2023-07-30T11:00:39;2.65;;;1.60;;
22164;SDS011;11248;52.512;13.520;2023-07-30T11:03:05;2.03;;;1.40;;
22164;SDS011;11248;52.512;13.520;2023-07-30T11:05:31;2.80;;;1.38;;
22164;SDS011;11248;52.512;13.520;2023-07-30T11:07:57;3.22;;;1.70;;
22164;SDS011;11248;52.512;13.520;2023-07-30T11:10:23;3.10;;;1.85;;
22164;SDS011;11248;52.512;13.520;2023-07-30T11:12:49;2.78;;;1.70;;
22164;SDS011;11248;52.512;13.520;2023-07-30T11:15:15;2.15;;;1.30;;
22164;SDS011;11248;52.512;13.520;2023-07-30T11:17:41;3.42;;;2.00;;
22164;SDS011;11248;52.512;13.520;2023-07-30T11:20:21;3.90;;;1.90;;
22164;SDS011;11248;52.512;13.520;2023-07-30T11:22:47;3.05;;;1.60;;
22164;SDS011;11248;52.512;13.520;2023-07-30T11:25:17;3.20;;;1.75;;
22164;SDS011;11248;52.512;13.520;2023-07-30T11:27:49;2.38;;;1.50;;
22164;SDS011;11248;52.512;13.520;2023-07-30T11:30:15;4.03;;;1.55;;
22164;SDS011;11248;52.512;13.520;2023-07-30T11:32:42;3.80;;;1.98;;
22164;SDS011;11248;52.512;13.520;2023-07-30T11:35:09;4.45;;;1.73;;
22164;SDS011;11248;52.512;13.520;2023-07-30T11:37:36;2.70;;;1.52;;
22164;SDS011;11248;52.512;13.520;2023-07-30T11:40:05;3.10;;;1.50;;
22164;SDS011;11248;52.512;13.520;2023-07-30T11:42:31;2.10;;;1.50;;
22164;SDS011;11248;52.512;13.520;2023-07-30T11:44:58;1.60;;;1.10;;
22164;SDS011;11248;52.512;13.520;2023-07-30T11:47:24;3.47;;;1.60;;
22164;SDS011;11248;52.512;13.520;2023-07-30T11:49:56;1.55;;;1.20;;
22164;SDS011;11248;52.512;13.520;2023-07-30T11:52:22;1.98;;;1.50;;
22164;SDS011;11248;52.512;13.520;2023-07-30T11:54:59;4.82;;;1.70;;
22164;SDS011;11248;52.512;13.520;2023-07-30T11:57:32;3.30;;;1.45;;
22164;SDS011;11248;52.512;13.520;2023-07-30T11:59:58;4.80;;;1.63;;
22164;SDS011;11248;52.512;13.520;2023-07-30T12:02:24;3.22;;;1.38;;
22164;SDS011;11248;52.512;13.520;2023-07-30T12:04:50;2.95;;;1.33;;
22164;SDS011;11248;52.512;13.520;2023-07-30T12:07:23;2.60;;;1.52;;
22164;SDS011;11248;52.512;13.520;2023-07-30T12:09:52;1.92;;;1.55;;
22164;SDS011;11248;52.512;13.520;2023-07-30T12:12:18;1.30;;;1.20;;
22164;SDS011;11248;52.512;13.520;2023-07-30T12:14:45;3.35;;;1.52;;
22164;SDS011;11248;52.512;13.520;2023-07-30T12:19:44;3.20;;;1.42;;
22164;SDS011;11248;52.512;13.520;2023-07-30T12:22:10;3.05;;;1.30;;
22164;SDS011;11248;52.512;13.520;2023-07-30T12:24:35;4.55;;;1.42;;
22164;SDS011;11248;52.512;13.520;2023-07-30T12:27:01;3.70;;;1.48;;
22164;SDS011;11248;52.512;13.520;2023-07-30T12:29:27;2.28;;;1.40;;
22164;SDS011;11248;52.512;13.520;2023-07-30T12:31:53;3.13;;;1.33;;
22164;SDS011;11248;52.512;13.520;2023-07-30T12:34:21;2.58;;;1.20;;
22164;SDS011;11248;52.512;13.520;2023-07-30T12:36:47;2.97;;;1.38;;
22164;SDS011;11248;52.512;13.520;2023-07-30T12:39:13;4.00;;;1.73;;
22164;SDS011;11248;52.512;13.520;2023-07-30T12:41:39;2.10;;;1.52;;
22164;SDS011;11248;52.512;13.520;2023-07-30T12:44:05;2.45;;;1.20;;
22164;SDS011;11248;52.512;13.520;2023-07-30T12:46:31;4.07;;;1.45;;
22164;SDS011;11248;52.512;13.520;2023-07-30T12:48:58;4.18;;;1.70;;
22164;SDS011;11248;52.512;13.520;2023-07-30T12:51:29;4.63;;;1.92;;
22164;SDS011;11248;52.512;13.520;2023-07-30T12:53:55;3.15;;;1.75;;
22164;SDS011;11248;52.512;13.520;2023-07-30T12:56:21;2.45;;;1.23;;
22164;SDS011;11248;52.512;13.520;2023-07-30T12:58:47;2.55;;;1.70;;
22164;SDS011;11248;52.512;13.520;2023-07-30T13:01:13;3.33;;;1.38;;
22164;SDS011;11248;52.512;13.520;2023-07-30T13:03:39;3.28;;;1.50;;
22164;SDS011;11248;52.512;13.520;2023-07-30T13:06:09;4.30;;;1.58;;
22164;SDS011;11248;52.512;13.520;2023-07-30T13:08:35;2.95;;;1.60;;
22164;SDS011;11248;52.512;13.520;2023-07-30T13:11:01;3.15;;;1.83;;
22164;SDS011;11248;52.512;13.520;2023-07-30T13:13:27;5.03;;;1.60;;
22164;SDS011;11248;52.512;13.520;2023-07-30T13:15:53;3.83;;;2.10;;
22164;SDS011;11248;52.512;13.520;2023-07-30T13:18:22;3.53;;;1.58;;
22164;SDS011;11248;52.512;13.520;2023-07-30T13:20:48;2.80;;;1.58;;
22164;SDS011;11248;52.512;13.520;2023-07-30T13:23:15;2.20;;;1.30;;
22164;SDS011;11248;52.512;13.520;2023-07-30T13:25:41;2.78;;;1.48;;
22164;SDS011;11248;52.512;13.520;2023-07-30T13:28:07;3.10;;;1.73;;
22164;SDS011;11248;52.512;13.520;2023-07-30T13:30:33;3.03;;;1.65;;
22164;SDS011;11248;52.512;13.520;2023-07-30T13:32:59;3.30;;;2.05;;
22164;SDS011;11248;52.512;13.520;2023-07-30T13:35:25;2.70;;;1.52;;
22164;SDS011;11248;52.512;13.520;2023-07-30T13:37:50;3.05;;;1.50;;
22164;SDS011;11248;52.512;13.520;2023-07-30T13:40:16;1.88;;;1.35;;
22164;SDS011;11248;52.512;13.520;2023-07-30T13:42:42;3.67;;;1.90;;
22164;SDS011;11248;52.512;13.520;2023-07-30T13:45:08;2.67;;;1.70;;
22164;SDS011;11248;52.512;13.520;2023-07-30T13:47:34;2.67;;;1.52;;
22164;SDS011;11248;52.512;13.520;2023-07-30T13:50:00;3.13;;;1.63;;
22164;SDS011;11248;52.512;13.520;2023-07-30T13:52:26;2.00;;;1.40;;
22164;SDS011;11248;52.512;13.520;2023-07-30T13:54:52;2.08;;;1.55;;
22164;SDS011;11248;52.512;13.520;2023-07-30T13:57:25;2.65;;;1.70;;
22164;SDS011;11248;52.512;13.520;2023-07-30T13:59:51;3.45;;;1.60;;
22164;SDS011;11248;52.512;13.520;2023-07-30T14:02:17;1.88;;;1.58;;
22164;SDS011;11248;52.512;13.520;2023-07-30T14:04:43;2.72;;;1.70;;
22164;SDS011;11248;52.512;13.520;2023-07-30T14:07:09;1.27;;;1.17;;
22164;SDS011;11248;52.512;13.520;2023-07-30T14:09:35;1.63;;;1.23;;
22164;SDS011;11248;52.512;13.520;2023-07-30T14:12:05;2.33;;;1.30;;
22164;SDS011;11248;52.512;13.520;2023-07-30T14:14:31;2.08;;;1.17;;
22164;SDS011;11248;52.512;13.520;2023-07-30T14:16:57;2.17;;;1.38;;
22164;SDS011;11248;52.512;13.520;2023-07-30T14:19:23;2.22;;;1.27;;
22164;SDS011;11248;52.512;13.520;2023-07-30T14:21:49;2.00;;;1.30;;
22164;SDS011;11248;52.512;13.520;2023-07-30T14:24:14;2.03;;;1.20;;
22164;SDS011;11248;52.512;13.520;2023-07-30T14:26:41;2.05;;;1.02;;
22164;SDS011;11248;52.512;13.520;2023-07-30T14:29:07;2.35;;;1.23;;
22164;SDS011;11248;52.512;13.520;2023-07-30T14:31:33;1.13;;;1.00;;
22164;SDS011;11248;52.512;13.520;2023-07-30T14:33:58;2.45;;;1.30;;
22164;SDS011;11248;52.512;13.520;2023-07-30T14:36:24;1.55;;;1.05;;
22164;SDS011;11248;52.512;13.520;2023-07-30T14:38:50;3.17;;;1.08;;